createdAt,value
2023-02-08T00:00:48.771Z,104001.72
2023-02-08T00:03:18.379Z,104002.19
2023-02-08T00:05:47.820Z,103990.69
2023-02-08T00:08:17.216Z,103987.59
2023-02-08T00:10:47.024Z,103984.84
2023-02-08T00:13:19.044Z,103974.00
2023-02-08T00:15:49.449Z,103962.50
2023-02-08T00:18:18.902Z,103965.91
2023-02-08T00:20:48.452Z,103956.59
2023-02-08T00:23:18.284Z,103959.13
2023-02-08T00:25:47.683Z,103965.34
2023-02-08T00:28:21.110Z,103969.50
2023-02-08T00:30:51.388Z,103974.41
2023-02-08T00:33:20.866Z,103972.56
2023-02-08T00:35:50.287Z,103956.94
2023-02-08T00:38:19.664Z,103959.91
2023-02-08T00:40:49.070Z,103964.19
2023-02-08T00:43:21.133Z,103959.13
2023-02-08T00:45:50.560Z,103968.47
2023-02-08T00:48:19.977Z,103939.41
2023-02-08T00:51:00.160Z,103949.69
2023-02-08T00:53:29.749Z,103962.84
2023-02-08T00:55:59.523Z,103959.56
2023-02-08T00:58:31.552Z,103971.53
2023-02-08T01:01:01.121Z,103985.16
2023-02-08T01:03:30.854Z,103984.66
2023-02-08T01:06:03.367Z,103991.34
2023-02-08T01:08:32.835Z,103997.78
2023-02-08T01:11:06.227Z,104000.69
2023-02-08T01:13:39.515Z,103993.78
2023-02-08T01:16:10.751Z,103987.91
2023-02-08T01:18:40.257Z,103990.63
2023-02-08T01:21:12.447Z,103990.56
2023-02-08T01:23:42.563Z,103985.09
2023-02-08T01:26:12.446Z,103983.72
2023-02-08T01:28:44.439Z,103971.38
2023-02-08T01:31:16.743Z,103964.03
2023-02-08T01:33:46.252Z,103963.84
2023-02-08T01:36:16.476Z,103952.13
2023-02-08T01:38:47.011Z,103952.84
2023-02-08T01:41:18.714Z,103956.25
2023-02-08T01:44:09.256Z,103956.59
2023-02-08T01:46:40.069Z,103962.06
2023-02-08T01:49:12.464Z,103959.56
2023-02-08T01:51:44.404Z,103959.19
2023-02-08T01:54:15.555Z,103950.97
2023-02-08T01:56:47.633Z,103954.63
2023-02-08T01:59:22.729Z,103948.88
2023-02-08T02:01:54.369Z,103939.19
2023-02-08T02:04:24.075Z,103941.50
2023-02-08T02:06:56.725Z,103939.97
2023-02-08T02:09:29.502Z,103935.31
2023-02-08T02:11:59.047Z,103944.53
2023-02-08T02:14:31.885Z,103936.16
2023-02-08T02:17:02.726Z,103932.97
2023-02-08T02:19:39.285Z,103937.66
2023-02-08T02:22:18.915Z,103937.91
2023-02-08T02:25:10.316Z,103932.59
2023-02-08T02:28:03.570Z,103922.53
2023-02-08T02:30:49.192Z,103933.56
2023-02-08T02:33:38.238Z,103932.63
2023-02-08T02:36:15.664Z,103943.19
2023-02-08T02:38:54.241Z,103936.94
2023-02-08T02:41:44.778Z,103939.69
2023-02-08T02:44:19.964Z,103934.84
2023-02-08T02:46:52.542Z,103935.09
2023-02-08T02:49:28.368Z,103934.63
2023-02-08T02:52:01.724Z,103939.47
2023-02-08T02:54:36.658Z,103942.72
2023-02-08T02:57:08.095Z,103945.03
2023-02-08T02:59:38.427Z,103939.50
2023-02-08T03:02:08.941Z,103953.72
2023-02-08T03:04:55.700Z,103947.75
2023-02-08T03:07:39.271Z,103937.00
2023-02-08T03:10:18.302Z,103945.47
2023-02-08T03:12:56.319Z,103940.88
2023-02-08T03:15:31.958Z,103944.53
2023-02-08T03:18:08.627Z,103944.09
2023-02-08T03:20:43.043Z,103949.13
2023-02-08T03:23:17.303Z,103949.38
2023-02-08T03:25:52.702Z,103954.22
2023-02-08T03:28:26.102Z,103951.22
2023-02-08T03:31:02.076Z,103947.31
2023-02-08T03:33:35.881Z,103950.78
2023-02-08T03:36:11.661Z,103954.66
2023-02-08T03:38:43.633Z,103953.47
2023-02-08T03:41:15.949Z,103945.47
2023-02-08T03:43:47.928Z,103952.81
2023-02-08T03:46:19.249Z,103947.53
2023-02-08T03:48:52.571Z,103947.94
2023-02-08T03:51:26.012Z,103943.56
2023-02-08T03:53:56.689Z,103949.03
2023-02-08T03:56:31.833Z,103945.00
2023-02-08T03:59:03.876Z,103947.28
2023-02-08T04:01:36.905Z,103939.75
2023-02-08T04:04:06.730Z,103939.97
2023-02-08T04:06:38.738Z,103943.41
2023-02-08T04:09:08.491Z,103945.00
2023-02-08T04:11:37.950Z,103949.59
2023-02-08T04:14:07.372Z,103936.91
2023-02-08T04:16:36.784Z,103927.53
2023-02-08T04:19:06.651Z,103932.06
2023-02-08T04:21:38.864Z,103933.50
2023-02-08T04:24:08.955Z,103942.75
2023-02-08T04:26:38.385Z,103946.41
2023-02-08T04:29:07.839Z,103925.16
2023-02-08T04:31:37.312Z,103930.22
2023-02-08T04:34:06.879Z,103927.16
2023-02-08T04:36:38.966Z,103922.56
2023-02-08T04:39:08.706Z,103919.53
2023-02-08T04:41:38.132Z,103913.13
2023-02-08T04:44:07.603Z,103916.28
2023-02-08T04:46:37.081Z,103919.94
2023-02-08T04:49:06.996Z,103916.78
2023-02-08T04:51:39.127Z,103924.63
2023-02-08T04:54:08.639Z,103923.41
2023-02-08T04:56:38.647Z,103928.53
2023-02-08T04:59:08.080Z,103932.88
2023-02-08T05:01:37.461Z,103932.66
2023-02-08T05:04:07.497Z,103924.13
2023-02-08T05:06:39.554Z,103923.53
2023-02-08T05:09:09.960Z,103920.91
2023-02-08T05:11:39.530Z,103926.53
2023-02-08T05:14:09.001Z,103917.03
2023-02-08T05:16:38.397Z,103915.00
2023-02-08T05:19:07.841Z,103918.38
2023-02-08T05:21:39.908Z,103926.06
2023-02-08T05:24:12.633Z,103919.94
2023-02-08T05:26:42.190Z,103914.63
2023-02-08T05:29:11.949Z,103921.91
2023-02-08T05:31:41.527Z,103914.94
2023-02-08T05:34:11.141Z,103917.22
2023-02-08T05:36:43.206Z,103909.00
2023-02-08T05:39:12.753Z,103909.53
2023-02-08T05:41:42.169Z,103907.72
2023-02-08T05:44:11.579Z,103913.66
2023-02-08T05:46:41.112Z,103906.59
2023-02-08T05:49:10.556Z,103903.78
2023-02-08T05:51:40.033Z,103910.88
2023-02-08T05:54:12.075Z,103903.78
2023-02-08T05:56:41.495Z,103911.34
2023-02-08T05:59:12.466Z,103901.53
2023-02-08T06:01:42.426Z,103907.22
2023-02-08T06:04:11.905Z,103907.72
2023-02-08T06:06:41.312Z,103907.97
2023-02-08T06:09:13.395Z,103906.38
2023-02-08T06:11:42.900Z,103919.25
2023-02-08T06:14:12.374Z,103917.38
2023-02-08T06:16:41.864Z,103933.47
2023-02-08T06:19:11.372Z,103941.34
2023-02-08T06:21:40.754Z,103935.59
2023-02-08T06:24:13.745Z,103929.38
2023-02-08T06:26:43.142Z,103929.59
2023-02-08T06:29:12.956Z,103930.25
2023-02-08T06:31:42.505Z,103929.63
2023-02-08T06:34:12.009Z,103927.56
2023-02-08T06:36:41.600Z,103922.47
2023-02-08T06:39:13.780Z,103914.13
2023-02-08T06:41:43.143Z,103918.75
2023-02-08T06:44:12.580Z,103910.47
2023-02-08T06:46:41.963Z,103920.16
2023-02-08T06:49:11.436Z,103918.31
2023-02-08T06:51:40.868Z,103913.03
2023-02-08T06:54:12.956Z,103922.69
2023-02-08T06:56:43.453Z,103922.66
2023-02-08T06:59:12.928Z,103921.06
2023-02-08T07:01:42.480Z,103908.44
2023-02-08T07:04:11.906Z,103903.97
2023-02-08T07:06:41.300Z,103909.44
2023-02-08T07:09:13.334Z,103930.06
2023-02-08T07:11:42.785Z,103928.06
2023-02-08T07:14:15.100Z,103919.84
2023-02-08T07:16:44.688Z,103927.75
2023-02-08T07:19:14.131Z,103926.13
2023-02-08T07:21:43.486Z,103928.19
2023-02-08T07:24:15.437Z,103933.06
2023-02-08T07:26:44.887Z,103935.66
2023-02-08T07:29:14.307Z,103921.78
2023-02-08T07:31:43.751Z,103931.06
2023-02-08T07:34:13.238Z,103929.09
2023-02-08T07:36:42.690Z,103933.25
2023-02-08T07:39:14.732Z,103943.69
2023-02-08T07:41:44.151Z,103941.50
2023-02-08T07:44:13.880Z,103944.63
2023-02-08T07:46:43.695Z,103950.94
2023-02-08T07:49:13.158Z,103958.16
2023-02-08T07:51:42.552Z,103952.78
2023-02-08T07:54:12.014Z,103951.41
2023-02-08T07:56:43.995Z,103952.81
2023-02-08T07:59:14.770Z,103949.13
2023-02-08T08:01:44.255Z,103958.06
2023-02-08T08:04:13.801Z,103944.09
2023-02-08T08:06:43.202Z,103944.56
2023-02-08T08:09:12.666Z,103933.50
2023-02-08T08:11:44.647Z,103933.25
2023-02-08T08:14:14.083Z,103935.75
2023-02-08T08:16:43.838Z,103921.44
2023-02-08T08:19:13.304Z,103934.84
2023-02-08T08:21:42.685Z,103934.81
2023-02-08T08:24:12.896Z,103927.00
2023-02-08T08:26:44.855Z,103922.44
2023-02-08T08:29:15.034Z,103919.19
2023-02-08T08:31:45.980Z,103922.84
2023-02-08T08:34:15.430Z,103920.13
2023-02-08T08:36:44.788Z,103930.50
2023-02-08T08:39:14.194Z,103926.56
2023-02-08T08:41:46.148Z,103921.06
2023-02-08T08:44:15.577Z,103922.84
2023-02-08T08:46:45.033Z,103922.38
2023-02-08T08:49:14.566Z,103917.78
2023-02-08T08:51:44.131Z,103930.22
2023-02-08T08:54:13.600Z,103926.31
2023-02-08T08:56:43.015Z,103914.03
2023-02-08T08:59:15.307Z,103920.53
2023-02-08T09:01:44.709Z,103917.94
2023-02-08T09:04:14.210Z,103916.44
2023-02-08T09:06:43.708Z,103914.28
2023-02-08T09:09:13.123Z,103919.31
2023-02-08T09:11:42.580Z,103925.03
2023-02-08T09:14:14.825Z,103922.00
2023-02-08T09:16:47.475Z,103926.78
2023-02-08T09:19:17.777Z,103925.91
2023-02-08T09:21:47.484Z,103926.34
2023-02-08T09:24:17.009Z,103919.38
2023-02-08T09:26:46.409Z,103920.31
2023-02-08T09:29:18.420Z,103930.22
2023-02-08T09:31:47.897Z,103930.72
2023-02-08T09:34:17.480Z,103936.41
2023-02-08T09:36:46.897Z,103930.38
2023-02-08T09:39:17.833Z,103926.59
2023-02-08T09:42:17.371Z,103931.09
2023-02-08T09:44:58.216Z,103924.66
2023-02-08T09:47:33.101Z,103917.59
2023-02-08T09:50:06.354Z,103915.19
2023-02-08T09:52:39.519Z,103905.34
2023-02-08T09:55:20.477Z,103897.97
2023-02-08T09:57:50.440Z,103897.63
2023-02-08T10:00:27.025Z,103885.56
2023-02-08T10:02:57.662Z,103883.25
2023-02-08T10:05:28.243Z,103890.03
2023-02-08T10:07:58.590Z,103865.91
2023-02-08T10:10:40.874Z,103836.06
2023-02-08T10:13:25.659Z,103828.97
2023-02-08T10:16:12.385Z,103786.91
2023-02-08T10:18:47.432Z,103762.16
2023-02-08T10:21:26.837Z,103757.34
2023-02-08T10:24:11.950Z,103782.31
2023-02-08T10:26:48.662Z,103734.22
2023-02-08T10:29:31.728Z,103681.28
2023-02-08T10:32:10.827Z,103604.31
2023-02-08T10:34:45.850Z,103566.00
2023-02-08T10:37:17.752Z,103522.41
2023-02-08T10:39:47.748Z,103454.44
2023-02-08T10:42:18.791Z,103428.19
2023-02-08T10:45:12.748Z,103411.34
2023-02-08T10:47:53.261Z,103399.16
2023-02-08T10:50:27.481Z,103430.16
2023-02-08T10:52:58.114Z,103416.41
2023-02-08T10:55:27.839Z,103408.59
2023-02-08T10:58:00.474Z,103403.03
2023-02-08T11:00:31.937Z,103373.34
2023-02-08T11:03:07.841Z,103364.44
2023-02-08T11:05:38.922Z,103356.06
2023-02-08T11:08:10.308Z,103353.56
2023-02-08T11:10:40.346Z,103329.16
2023-02-08T11:13:18.550Z,103313.88
2023-02-08T11:15:50.073Z,103313.88
2023-02-08T11:18:25.935Z,103307.22
2023-02-08T11:20:58.220Z,103293.25
2023-02-08T11:23:29.724Z,103293.34
2023-02-08T11:26:17.371Z,103294.84
2023-02-08T11:28:47.395Z,103292.50
2023-02-08T11:31:21.284Z,103313.41
2023-02-08T11:34:09.228Z,103305.44
2023-02-08T11:36:40.506Z,103338.41
2023-02-08T11:39:19.427Z,103328.97
2023-02-08T11:41:49.329Z,103348.41
2023-02-08T11:44:24.028Z,103343.50
2023-02-08T11:46:54.254Z,103390.97
2023-02-08T11:49:28.900Z,103344.44
2023-02-08T11:51:58.599Z,103294.78
2023-02-08T11:54:36.723Z,103286.78
2023-02-08T11:57:13.422Z,103264.97
2023-02-08T11:59:42.886Z,103267.50
2023-02-08T12:02:30.202Z,103249.13
2023-02-08T12:05:02.341Z,103247.06
2023-02-08T12:07:48.480Z,103244.53
2023-02-08T12:10:27.428Z,103204.34
2023-02-08T12:13:05.566Z,103202.56
2023-02-08T12:15:57.978Z,103202.38
2023-02-08T12:18:42.284Z,103213.94
2023-02-08T12:21:19.009Z,103209.88
2023-02-08T12:23:55.798Z,103192.03
2023-02-08T12:26:41.336Z,103178.56
2023-02-08T12:29:21.382Z,103184.50
2023-02-08T12:32:05.367Z,103174.75
2023-02-08T12:34:46.867Z,103168.88
2023-02-08T12:37:38.462Z,103159.66
2023-02-08T12:40:36.249Z,103142.31
2023-02-08T12:43:13.960Z,103135.91
2023-02-08T12:46:14.111Z,103135.25
2023-02-08T12:48:54.674Z,103125.09
2023-02-08T12:51:30.171Z,103135.75
2023-02-08T12:54:03.982Z,103141.03
2023-02-08T12:56:38.620Z,103153.31
2023-02-08T12:59:13.785Z,103151.66
2023-02-08T13:01:46.105Z,103162.22
2023-02-08T13:04:17.620Z,103168.66
2023-02-08T13:06:52.174Z,103193.44
2023-02-08T13:09:35.977Z,103204.41
2023-02-08T13:12:09.474Z,103204.19
2023-02-08T13:14:40.867Z,103219.34
2023-02-08T13:17:16.224Z,103199.28
2023-02-08T13:20:00.271Z,103201.75
2023-02-08T13:22:34.292Z,103232.28
2023-02-08T13:25:10.122Z,103285.53
2023-02-08T13:27:39.596Z,103314.97
2023-02-08T13:30:10.320Z,103325.06
2023-02-08T13:32:44.176Z,103345.16
2023-02-08T13:35:17.372Z,103341.97
2023-02-08T13:37:53.342Z,103350.84
2023-02-08T13:40:28.842Z,103357.81
2023-02-08T13:43:02.092Z,103352.53
2023-02-08T13:45:34.339Z,103349.22
2023-02-08T13:48:05.332Z,103355.69
2023-02-08T13:50:44.402Z,103349.84
2023-02-08T13:53:14.909Z,103346.94
2023-02-08T13:56:08.897Z,103343.97
2023-02-08T13:59:06.814Z,103349.09
2023-02-08T14:01:37.726Z,103351.94
2023-02-08T14:04:31.946Z,103353.56
2023-02-08T14:07:15.736Z,103346.97
2023-02-08T14:09:51.000Z,103343.38
2023-02-08T14:12:32.124Z,103340.69
2023-02-08T14:15:41.285Z,103343.59
2023-02-08T14:18:27.611Z,103342.13
2023-02-08T14:21:08.837Z,103341.78
2023-02-08T14:23:40.836Z,103319.63
2023-02-08T14:26:12.374Z,103329.63
2023-02-08T14:28:48.821Z,103320.06
2023-02-08T14:31:18.906Z,103316.88
2023-02-08T14:33:55.558Z,103300.16
2023-02-08T14:36:31.629Z,103302.75
2023-02-08T14:39:10.405Z,103297.81
2023-02-08T14:41:54.688Z,103302.88
2023-02-08T14:44:56.776Z,103303.84
2023-02-08T14:48:06.402Z,103313.00
2023-02-08T14:50:42.156Z,103310.09
2023-02-08T14:53:22.614Z,103314.28
2023-02-08T14:55:54.923Z,103303.91
2023-02-08T14:58:31.385Z,103297.41
2023-02-08T15:01:04.486Z,103299.84
2023-02-08T15:03:35.498Z,103298.25
2023-02-08T15:06:26.608Z,103282.16
2023-02-08T15:08:56.887Z,103253.03
2023-02-08T15:11:28.383Z,103247.59
2023-02-08T15:14:01.147Z,103194.59
2023-02-08T15:16:35.337Z,103181.91
2023-02-08T15:19:06.020Z,103199.53
2023-02-08T15:21:41.054Z,103221.53
2023-02-08T15:24:17.853Z,103239.50
2023-02-08T15:26:47.865Z,103251.00
2023-02-08T15:29:26.136Z,103242.38
2023-02-08T15:31:59.634Z,103241.41
2023-02-08T15:34:29.465Z,103231.06
2023-02-08T15:37:01.455Z,103227.09
2023-02-08T15:39:38.470Z,103215.06
2023-02-08T15:42:08.710Z,103204.41
2023-02-08T15:44:38.129Z,103186.72
2023-02-08T15:47:08.864Z,103187.53
2023-02-08T15:49:45.607Z,103075.97
2023-02-08T15:52:19.192Z,102970.88
2023-02-08T15:54:51.884Z,102977.03
2023-02-08T15:57:29.171Z,102994.19
2023-02-08T15:59:58.904Z,103062.56
2023-02-08T16:02:31.426Z,103066.22
2023-02-08T16:05:01.434Z,103067.34
2023-02-08T16:07:35.432Z,103081.75
2023-02-08T16:10:05.469Z,103087.09
2023-02-08T16:12:35.381Z,103067.91
2023-02-08T16:15:04.859Z,103061.50
2023-02-08T16:17:39.713Z,103046.44
2023-02-08T16:20:29.692Z,103021.88
2023-02-08T16:23:04.150Z,102985.31
2023-02-08T16:25:39.928Z,102946.56
2023-02-08T16:28:09.406Z,102948.81
2023-02-08T16:30:38.933Z,102939.19
2023-02-08T16:33:10.328Z,102930.94
2023-02-08T16:35:41.947Z,102928.16
2023-02-08T16:38:21.525Z,102915.63
2023-02-08T16:40:53.516Z,102896.22
2023-02-08T16:43:28.126Z,102899.72
2023-02-08T16:46:25.249Z,102910.75
2023-02-08T16:48:56.840Z,102918.00
2023-02-08T16:51:27.996Z,102939.59
2023-02-08T16:54:07.024Z,102953.28
2023-02-08T16:56:37.487Z,102977.38
2023-02-08T16:59:07.200Z,102965.78
2023-02-08T17:01:38.140Z,102963.63
2023-02-08T17:04:08.146Z,102990.50
2023-02-08T17:06:39.109Z,103014.78
2023-02-08T17:09:12.054Z,103013.94
2023-02-08T17:11:42.023Z,103011.44
2023-02-08T17:14:12.389Z,103014.41
2023-02-08T17:16:44.141Z,103036.16
2023-02-08T17:19:19.717Z,103026.06
2023-02-08T17:21:49.147Z,103031.94
2023-02-08T17:24:22.021Z,103038.13
2023-02-08T17:26:51.477Z,103043.63
2023-02-08T17:29:20.913Z,103041.44
2023-02-08T17:31:50.885Z,103061.28
2023-02-08T17:34:20.337Z,103071.09
2023-02-08T17:36:50.412Z,103083.47
2023-02-08T17:39:22.376Z,103093.06
2023-02-08T17:41:51.820Z,103098.53
2023-02-08T17:44:21.299Z,103148.31
2023-02-08T17:46:50.764Z,103214.44
2023-02-08T17:49:20.182Z,103195.16
2023-02-08T17:51:49.653Z,103163.03
2023-02-08T17:54:20.974Z,103172.66
2023-02-08T17:56:56.629Z,103155.75
2023-02-08T17:59:27.430Z,103142.09
2023-02-08T18:01:57.123Z,103153.34
2023-02-08T18:04:26.629Z,103183.84
2023-02-08T18:06:56.216Z,103195.09
2023-02-08T18:09:25.641Z,103195.75
2023-02-08T18:11:57.646Z,103210.06
2023-02-08T18:14:27.122Z,103228.53
2023-02-08T18:16:56.504Z,103243.88
2023-02-08T18:19:25.919Z,103271.03
2023-02-08T18:21:55.360Z,103287.72
2023-02-08T18:24:24.729Z,103295.94
2023-02-08T18:26:58.350Z,103318.38
2023-02-08T18:29:30.030Z,103325.97
2023-02-08T18:31:59.593Z,103340.88
2023-02-08T18:34:29.136Z,103347.63
2023-02-08T18:36:58.521Z,103348.09
2023-02-08T18:39:28.018Z,103353.13
2023-02-08T18:41:59.988Z,103355.06
2023-02-08T18:44:29.491Z,103359.88
2023-02-08T18:46:58.908Z,103361.72
2023-02-08T18:49:28.362Z,103364.88
2023-02-08T18:51:57.755Z,103351.28
2023-02-08T18:54:27.171Z,103362.88
2023-02-08T18:56:56.782Z,103358.13
2023-02-08T18:59:28.775Z,103360.06
2023-02-08T19:01:58.215Z,103364.00
2023-02-08T19:04:27.611Z,103367.19
2023-02-08T19:06:57.511Z,103365.28
2023-02-08T19:09:26.979Z,103362.41
2023-02-08T19:11:56.425Z,103373.22
2023-02-08T19:14:28.549Z,103374.22
2023-02-08T19:16:58.063Z,103372.53
2023-02-08T19:19:27.475Z,103377.78
2023-02-08T19:21:56.945Z,103371.63
2023-02-08T19:24:26.552Z,103383.09
2023-02-08T19:26:56.051Z,103385.34
2023-02-08T19:29:28.040Z,103395.66
2023-02-08T19:31:58.512Z,103394.84
2023-02-08T19:34:28.098Z,103389.47
2023-02-08T19:36:57.944Z,103386.22
2023-02-08T19:39:29.439Z,103391.81
2023-02-08T19:41:59.442Z,103387.56
2023-02-08T19:44:31.439Z,103387.47
2023-02-08T19:47:01.230Z,103393.88
2023-02-08T19:49:30.744Z,103381.59
2023-02-08T19:52:00.405Z,103391.41
2023-02-08T19:54:29.838Z,103386.66
2023-02-08T19:56:59.272Z,103382.50
2023-02-08T19:59:35.096Z,103381.69
2023-02-08T20:02:04.995Z,103383.63
2023-02-08T20:04:36.046Z,103373.19
2023-02-08T20:07:06.425Z,103373.50
2023-02-08T20:09:36.102Z,103375.22
2023-02-08T20:12:05.785Z,103370.44
2023-02-08T20:14:37.761Z,103370.44
2023-02-08T20:17:07.359Z,103373.59
2023-02-08T20:19:38.871Z,103367.22
2023-02-08T20:22:08.845Z,103369.44
2023-02-08T20:24:38.294Z,103363.25
2023-02-08T20:27:07.748Z,103360.72
2023-02-08T20:29:39.707Z,103361.91
2023-02-08T20:32:09.733Z,103355.53
2023-02-08T20:34:47.343Z,103366.16
2023-02-08T20:37:23.511Z,103371.22
2023-02-08T20:39:52.943Z,103372.84
2023-02-08T20:42:22.591Z,103370.59
2023-02-08T20:44:54.645Z,103364.03
2023-02-08T20:47:24.101Z,103366.72
2023-02-08T20:49:54.132Z,103363.38
2023-02-08T20:52:23.636Z,103363.91
2023-02-08T20:54:53.032Z,103373.47
2023-02-08T20:57:22.445Z,103377.00
2023-02-08T20:59:55.568Z,103372.38
2023-02-08T21:02:26.021Z,103370.84
2023-02-08T21:04:55.493Z,103371.78
2023-02-08T21:07:24.958Z,103372.50
2023-02-08T21:09:54.407Z,103370.69
2023-02-08T21:12:25.365Z,103373.75
2023-02-08T21:14:57.357Z,103370.94
2023-02-08T21:17:26.849Z,103370.44
2023-02-08T21:19:56.253Z,103371.00
2023-02-08T21:22:26.537Z,103356.03
2023-02-08T21:24:55.995Z,103354.91
2023-02-08T21:27:25.484Z,103350.47
2023-02-08T21:29:57.499Z,103352.97
2023-02-08T21:32:26.909Z,103350.94
2023-02-08T21:34:56.332Z,103349.72
2023-02-08T21:37:25.718Z,103340.72
2023-02-08T21:39:55.125Z,103335.91
2023-02-08T21:42:24.524Z,103331.06
2023-02-08T21:44:53.954Z,103323.75
2023-02-08T21:47:25.998Z,103324.59
2023-02-08T21:50:07.956Z,103326.41
2023-02-08T21:52:49.905Z,103319.09
2023-02-08T21:55:19.396Z,103308.75
2023-02-08T21:57:48.829Z,103317.59
2023-02-08T22:00:18.639Z,103309.41
2023-02-08T22:02:50.725Z,103301.09
2023-02-08T22:05:32.755Z,103298.84
2023-02-08T22:08:02.367Z,103295.22
2023-02-08T22:10:34.150Z,103292.81
2023-02-08T22:13:03.807Z,103282.25
2023-02-08T22:15:35.028Z,103277.66
2023-02-08T22:18:07.353Z,103277.66
2023-02-08T22:20:37.961Z,103270.47
2023-02-08T22:23:07.601Z,103265.47
2023-02-08T22:25:37.004Z,103263.81
2023-02-08T22:28:09.288Z,103267.53
2023-02-08T22:30:38.820Z,103260.16
2023-02-08T22:33:10.938Z,103264.28
2023-02-08T22:35:41.617Z,103257.00
2023-02-08T22:38:11.279Z,103259.09
2023-02-08T22:40:43.907Z,103260.06
2023-02-08T22:43:13.569Z,103254.47
2023-02-08T22:45:43.811Z,103255.72
2023-02-08T22:48:15.852Z,103254.91
2023-02-08T22:50:45.612Z,103256.88
2023-02-08T22:53:15.268Z,103256.44
2023-02-08T22:55:51.158Z,103248.63
2023-02-08T22:58:20.784Z,103255.59
2023-02-08T23:00:50.776Z,103241.91
2023-02-08T23:03:23.365Z,103234.81
2023-02-08T23:05:53.667Z,103237.84
2023-02-08T23:08:24.253Z,103243.34
2023-02-08T23:11:01.498Z,103235.53
2023-02-08T23:13:31.313Z,103241.63
2023-02-08T23:16:00.846Z,103237.09
2023-02-08T23:18:32.923Z,103232.31
2023-02-08T23:21:08.096Z,103231.03
2023-02-08T23:23:37.623Z,103228.25
2023-02-08T23:26:08.384Z,103222.41
2023-02-08T23:28:37.854Z,103217.84
2023-02-08T23:31:07.821Z,103215.47
2023-02-08T23:33:40.648Z,103208.31
2023-02-08T23:36:12.196Z,103203.22
2023-02-08T23:38:42.009Z,103202.19
2023-02-08T23:41:13.122Z,103201.69
2023-02-08T23:43:42.627Z,103202.84
2023-02-08T23:46:14.077Z,103198.63
2023-02-08T23:48:47.755Z,103195.78
2023-02-08T23:51:18.114Z,103208.06
2023-02-08T23:53:47.679Z,103199.16
2023-02-08T23:56:19.581Z,103191.34
2023-02-08T23:58:51.225Z,103187.31
